Time;durP1;ratioP1;P1;durP2;ratioP2;P2;SDS_P1;SDS_P2;PMS_P1;PMS_P2;Temp;Humidity;BMP_temperature;BMP_pressure;BME280_temperature;BME280_humidity;BME280_pressure;Samples;Min_cycle;Max_cycle;Signal;HPM_P1;HPM_P2
2023/06/14 00:01:47;;;;;;;10.52;8.00;;;;;;;19.27;46.01;101201.63;5022593;28;20021;-75
2023/06/14 00:04:12;;;;;;;10.25;8.27;;;;;;;19.19;45.79;101190.59;5022345;28;20060;-75
2023/06/14 00:06:38;;;;;;;9.25;8.27;;;;;;;19.21;46.59;101201.25;5025742;28;20053;-75
2023/06/14 00:09:04;;;;;;;11.05;8.80;;;;;;;19.06;46.20;101196.13;5025966;28;20486;-73
2023/06/14 00:11:33;;;;;;;9.40;8.30;;;;;;;19.00;46.27;101196.59;5018541;28;20029;-75
2023/06/14 00:13:58;;;;;;;8.60;7.80;;;;;;;19.03;46.53;101195.50;5025963;28;20553;-74
2023/06/14 00:16:24;;;;;;;8.73;7.90;;;;;;;19.00;46.61;101201.16;5028706;28;20104;-75
2023/06/14 00:18:51;;;;;;;9.43;8.43;;;;;;;18.92;46.34;101202.63;5034523;28;20423;-71
2023/06/14 00:21:17;;;;;;;10.65;8.23;;;;;;;18.91;46.89;101209.00;5021957;28;20109;-71
2023/06/14 00:23:42;;;;;;;9.18;7.82;;;;;;;18.86;46.86;101205.81;5017132;28;20041;-76
2023/06/14 00:26:08;;;;;;;9.32;8.52;;;;;;;18.84;47.18;101205.06;5023094;28;20309;-76
2023/06/14 00:28:33;;;;;;;9.77;8.57;;;;;;;18.78;47.33;101205.56;5025087;28;20104;-75
2023/06/14 00:30:58;;;;;;;9.80;8.80;;;;;;;18.76;46.78;101212.91;5028882;28;20391;-77
2023/06/14 00:33:25;;;;;;;8.88;8.07;;;;;;;18.65;47.75;101212.88;5023357;28;20059;-77
2023/06/14 00:35:53;;;;;;;9.13;8.23;;;;;;;18.63;46.96;101209.44;5005302;28;20574;-76
2023/06/14 00:38:19;;;;;;;12.65;8.65;;;;;;;18.45;47.18;101208.19;5016264;28;20033;-74
2023/06/14 00:40:44;;;;;;;10.38;8.80;;;;;;;18.41;47.48;101208.44;5023943;28;20545;-75
2023/06/14 00:43:09;;;;;;;9.65;8.43;;;;;;;18.40;47.28;101208.56;5020040;28;20036;-74
2023/06/14 00:45:35;;;;;;;9.30;8.38;;;;;;;18.39;47.49;101209.53;5020717;28;20044;-70
2023/06/14 00:48:06;;;;;;;10.52;8.52;;;;;;;18.33;47.92;101215.41;5022999;28;20040;-71
2023/06/14 00:50:32;;;;;;;9.52;8.52;;;;;;;18.34;48.24;101207.19;5015082;28;20111;-70
2023/06/14 00:53:00;;;;;;;8.82;7.97;;;;;;;18.26;47.74;101209.63;5024313;28;20029;-73
2023/06/14 00:55:26;;;;;;;9.98;8.40;;;;;;;18.30;48.31;101215.63;5023310;28;20116;-72
2023/06/14 00:57:51;;;;;;;9.02;8.02;;;;;;;18.21;47.95;101211.81;5022492;28;20120;-76
2023/06/14 01:00:17;;;;;;;10.55;8.50;;;;;;;18.10;48.40;101215.34;5024326;28;20018;-72
2023/06/14 01:02:43;;;;;;;8.98;8.07;;;;;;;18.09;48.05;101208.22;5023091;28;20102;-76
2023/06/14 01:05:10;;;;;;;10.35;7.55;;;;;;;18.13;47.93;101209.69;5020937;28;20544;-75
2023/06/14 01:08:00;;;;;;;8.23;7.40;;;;;;;18.15;47.74;101218.53;5016239;28;20037;-77
2023/06/14 01:10:36;;;;;;;8.77;7.90;;;;;;;18.09;47.94;101218.13;5022682;28;20033;-75
2023/06/14 01:13:20;;;;;;;8.93;8.02;;;;;;;18.02;47.83;101216.91;5022777;28;20038;-72
2023/06/14 01:15:47;;;;;;;13.00;8.57;;;;;;;17.87;48.21;101214.38;5023392;28;20572;-76
2023/06/14 01:18:17;;;;;;;10.40;8.27;;;;;;;17.82;48.13;101219.28;5021260;28;20550;-76
2023/06/14 01:20:45;;;;;;;10.13;7.88;;;;;;;17.85;48.73;101210.97;5015669;28;20536;-76
2023/06/14 01:23:15;;;;;;;9.73;7.65;;;;;;;17.77;48.51;101220.59;5020484;28;20037;-75
2023/06/14 01:25:44;;;;;;;8.52;7.72;;;;;;;17.71;48.14;101219.19;5023042;28;20492;-77
2023/06/14 01:28:11;;;;;;;8.80;7.78;;;;;;;17.60;48.18;101211.06;5023200;28;20124;-71
2023/06/14 01:30:47;;;;;;;9.25;7.50;;;;;;;17.64;48.63;101215.22;5013689;28;20185;-76
2023/06/14 01:33:18;;;;;;;8.95;7.78;;;;;;;17.43;48.90;101206.91;5023848;28;20037;-77
2023/06/14 01:35:46;;;;;;;8.23;7.32;;;;;;;17.57;48.60;101220.22;5023154;28;20535;-72
2023/06/14 01:38:14;;;;;;;8.73;7.30;;;;;;;17.41;48.62;101219.63;5022132;28;20049;-74
2023/06/14 01:40:42;;;;;;;9.35;7.30;;;;;;;17.34;48.54;101216.50;5026266;28;20038;-75
2023/06/14 01:43:08;;;;;;;14.60;7.40;;;;;;;17.32;48.55;101220.31;5024315;28;20025;-76
2023/06/14 01:45:34;;;;;;;8.95;7.18;;;;;;;17.30;48.70;101217.72;5024673;28;20045;-73
2023/06/14 01:48:00;;;;;;;8.77;7.10;;;;;;;17.25;48.06;101222.56;5025924;28;20126;-73
2023/06/14 01:50:34;;;;;;;7.90;7.18;;;;;;;17.25;48.22;101219.03;5023116;28;20087;-72
2023/06/14 01:53:00;;;;;;;8.15;6.95;;;;;;;17.29;48.27;101215.13;5022763;28;20508;-76
2023/06/14 01:55:26;;;;;;;9.98;6.78;;;;;;;17.18;48.32;101214.09;5022820;28;20151;-76
2023/06/14 01:57:52;;;;;;;7.47;6.30;;;;;;;17.10;47.95;101215.63;5022788;28;20037;-73
2023/06/14 02:00:18;;;;;;;7.45;6.80;;;;;;;17.04;48.03;101208.00;5020933;28;20021;-71
2023/06/14 02:02:44;;;;;;;9.00;6.68;;;;;;;16.97;47.87;101209.41;5021855;28;20032;-74
2023/06/14 02:05:10;;;;;;;8.48;7.15;;;;;;;16.95;48.38;101209.53;5018323;28;20025;-70
2023/06/14 02:07:35;;;;;;;7.25;6.55;;;;;;;16.93;47.74;101211.47;5022199;28;20028;-76
2023/06/14 02:10:04;;;;;;;8.93;6.10;;;;;;;16.88;47.96;101208.22;5021681;28;20075;-72
2023/06/14 02:12:30;;;;;;;7.00;6.30;;;;;;;16.80;47.80;101208.78;5022361;28;20383;-76
2023/06/14 02:14:56;;;;;;;8.25;6.43;;;;;;;16.83;47.84;101207.72;5016811;28;20026;-74
2023/06/14 02:17:22;;;;;;;6.70;5.85;;;;;;;16.83;47.53;101211.25;5010876;28;20256;-76
2023/06/14 02:19:48;;;;;;;7.05;6.28;;;;;;;16.83;47.58;101208.56;5021503;28;20545;-76
2023/06/14 02:22:14;;;;;;;7.28;5.90;;;;;;;16.81;48.15;101213.19;5022323;28;20040;-77
2023/06/14 02:24:40;;;;;;;8.10;6.22;;;;;;;16.83;47.70;101207.72;5022181;28;20021;-77
2023/06/14 02:27:06;;;;;;;6.97;5.90;;;;;;;16.77;47.79;101211.69;5018321;28;20030;-76
2023/06/14 02:29:34;;;;;;;8.82;5.95;;;;;;;16.64;47.63;101222.44;5020603;28;20075;-71
2023/06/14 02:31:59;;;;;;;8.15;5.85;;;;;;;16.67;47.73;101213.28;5018684;28;20045;-71
2023/06/14 02:34:25;;;;;;;8.60;5.60;;;;;;;16.63;47.82;101223.38;5020973;28;20052;-75
2023/06/14 02:36:52;;;;;;;7.35;6.13;;;;;;;16.61;47.78;101228.00;5023021;28;20107;-72
2023/06/14 02:39:20;;;;;;;11.35;6.22;;;;;;;16.46;47.71;101217.47;5020130;28;20025;-76
2023/06/14 02:41:46;;;;;;;6.40;5.70;;;;;;;16.53;47.96;101227.69;5021400;28;20025;-76
2023/06/14 02:44:13;;;;;;;6.82;5.47;;;;;;;16.59;48.08;101221.88;5020772;28;20044;-73
2023/06/14 02:46:38;;;;;;;7.55;5.82;;;;;;;16.51;48.21;101229.63;5021697;28;20044;-75
2023/06/14 02:49:04;;;;;;;10.15;5.90;;;;;;;16.56;47.89;101229.31;5019987;28;20029;-77
2023/06/14 02:51:29;;;;;;;8.32;5.57;;;;;;;16.49;48.15;101225.31;5019776;28;20083;-74
2023/06/14 02:53:55;;;;;;;5.85;5.30;;;;;;;16.48;48.03;101228.97;5020108;28;20037;-73
2023/06/14 02:56:22;;;;;;;6.00;5.40;;;;;;;16.35;48.54;101223.59;5026646;28;20040;-74
2023/06/14 02:58:48;;;;;;;6.50;5.78;;;;;;;16.31;48.45;101231.00;5022231;28;20509;-76
2023/06/14 03:01:14;;;;;;;6.30;5.35;;;;;;;16.34;48.66;101228.09;5017732;28;20037;-73
2023/06/14 03:03:39;;;;;;;9.20;5.50;;;;;;;16.29;48.47;101235.59;5022300;28;20021;-73
2023/06/14 03:06:05;;;;;;;7.95;5.60;;;;;;;16.26;48.63;101237.63;5023963;28;20034;-73
2023/06/14 03:08:33;;;;;;;6.50;5.38;;;;;;;16.28;48.67;101233.03;5026393;28;20108;-76
2023/06/14 03:10:58;;;;;;;7.95;5.53;;;;;;;16.24;49.00;101235.06;5023840;28;20091;-75
2023/06/14 03:13:23;;;;;;;7.65;5.72;;;;;;;16.12;48.98;101241.28;5019744;28;20471;-73
2023/06/14 03:15:52;;;;;;;8.07;5.47;;;;;;;16.18;48.86;101248.94;5024168;28;20025;-75
2023/06/14 03:18:17;;;;;;;7.57;6.30;;;;;;;16.14;48.97;101240.22;5006712;28;20033;-74
2023/06/14 03:20:45;;;;;;;7.80;5.50;;;;;;;16.03;49.10;101247.25;5024854;28;20100;-72
2023/06/14 03:23:11;;;;;;;5.57;5.05;;;;;;;16.11;49.13;101245.78;5021063;28;20099;-76
2023/06/14 03:25:38;;;;;;;6.13;5.53;;;;;;;16.09;49.49;101249.53;5028009;28;20042;-78
2023/06/14 03:28:04;;;;;;;5.80;5.28;;;;;;;16.06;49.39;101249.75;5030766;28;20100;-75
2023/06/14 03:30:30;;;;;;;6.93;5.45;;;;;;;16.06;49.38;101247.06;5024250;28;20033;-73
2023/06/14 03:32:55;;;;;;;7.13;5.55;;;;;;;15.91;49.67;101255.16;5026741;28;20020;-75
2023/06/14 03:35:21;;;;;;;7.75;5.85;;;;;;;15.99;49.55;101249.28;5026040;28;20040;-71
2023/06/14 03:37:49;;;;;;;6.22;5.40;;;;;;;15.91;50.05;101252.47;5028824;28;20029;-77
2023/06/14 03:40:17;;;;;;;5.90;5.40;;;;;;;15.89;49.81;101264.31;5024553;28;20503;-75
2023/06/14 03:42:43;;;;;;;9.25;5.85;;;;;;;15.90;49.98;101253.47;5028093;28;20238;-71
2023/06/14 03:45:08;;;;;;;6.10;5.50;;;;;;;15.84;50.22;101259.25;5028448;28;20029;-75
2023/06/14 03:47:34;;;;;;;9.20;5.68;;;;;;;15.81;50.15;101264.81;5026526;28;20108;-74
2023/06/14 03:50:00;;;;;;;6.65;5.93;;;;;;;15.81;50.06;101262.13;5029964;28;20503;-72
2023/06/14 03:52:26;;;;;;;8.15;6.10;;;;;;;15.86;50.25;101259.13;5023190;28;20067;-75
2023/06/14 03:54:52;;;;;;;8.50;5.75;;;;;;;15.85;50.53;101260.97;5027586;28;20033;-71
2023/06/14 03:57:17;;;;;;;8.80;5.72;;;;;;;15.75;50.54;101265.19;5028521;28;20108;-73
2023/06/14 03:59:42;;;;;;;7.68;5.50;;;;;;;15.70;50.69;101261.97;5028552;28;20089;-72
2023/06/14 04:02:09;;;;;;;6.30;5.43;;;;;;;15.82;50.63;101265.66;5027297;28;20025;-74
2023/06/14 04:04:35;;;;;;;8.90;5.85;;;;;;;15.77;50.56;101259.75;5025822;28;20025;-71
2023/06/14 04:07:03;;;;;;;6.03;5.43;;;;;;;15.69;50.83;101263.78;5024190;28;20041;-74
2023/06/14 04:09:29;;;;;;;8.65;5.80;;;;;;;15.79;51.12;101265.84;5023007;28;20029;-74
2023/06/14 04:11:55;;;;;;;7.50;5.57;;;;;;;15.75;50.87;101262.50;5024811;28;20029;-75
2023/06/14 04:14:21;;;;;;;6.07;5.45;;;;;;;15.67;51.25;101265.72;5023864;28;20165;-71
2023/06/14 04:16:48;;;;;;;6.93;5.38;;;;;;;15.72;51.12;101276.16;5023407;28;20033;-74
2023/06/14 04:19:13;;;;;;;7.18;5.30;;;;;;;15.66;51.43;101276.53;5015983;28;20044;-71
2023/06/14 04:21:39;;;;;;;6.60;5.60;;;;;;;15.79;51.30;101280.13;5023976;28;20032;-74
2023/06/14 04:24:05;;;;;;;15.05;5.60;;;;;;;15.83;51.37;101275.44;5020698;28;20122;-73
2023/06/14 04:26:33;;;;;;;7.35;5.45;;;;;;;15.79;51.31;101279.28;5023520;28;20037;-74
2023/06/14 04:29:01;;;;;;;6.15;5.55;;;;;;;15.84;51.26;101282.50;5026242;28;20518;-75
2023/06/14 04:31:29;;;;;;;9.50;5.75;;;;;;;15.79;51.45;101285.50;5024517;28;20343;-70
2023/06/14 04:33:56;;;;;;;7.72;5.65;;;;;;;15.82;51.74;101284.44;5024032;28;20470;-73
2023/06/14 04:36:22;;;;;;;6.97;5.55;;;;;;;15.75;51.63;101278.63;5017493;28;20253;-70
2023/06/14 04:38:49;;;;;;;6.97;5.35;;;;;;;15.78;51.85;101281.09;5023696;28;20144;-73
2023/06/14 04:41:15;;;;;;;6.68;5.57;;;;;;;15.79;51.84;101279.28;5023773;28;20029;-73
2023/06/14 04:43:42;;;;;;;7.35;5.65;;;;;;;15.88;52.10;101278.66;5025599;28;20025;-72
2023/06/14 04:46:10;;;;;;;6.82;5.22;;;;;;;15.94;51.79;101286.34;5019805;28;20085;-71
2023/06/14 04:48:40;;;;;;;7.55;5.90;;;;;;;16.00;51.90;101285.91;5020720;28;20483;-71
2023/06/14 04:51:09;;;;;;;8.38;5.57;;;;;;;15.98;51.78;101290.53;5022857;28;20037;-71
2023/06/14 04:53:35;;;;;;;8.25;5.50;;;;;;;16.11;52.13;101285.22;5024965;28;20049;-75
2023/06/14 04:56:01;;;;;;;11.55;6.28;;;;;;;16.16;51.97;101289.28;5025379;28;20693;-71
2023/06/14 04:58:28;;;;;;;7.55;5.53;;;;;;;16.29;51.89;101294.69;5026011;28;20455;-74
2023/06/14 05:00:55;;;;;;;6.05;5.05;;;;;;;16.38;51.77;101291.38;5023745;28;20420;-71
2023/06/14 05:03:21;;;;;;;8.20;5.47;;;;;;;16.51;51.37;101294.13;5023390;28;20017;-75
2023/06/14 05:05:46;;;;;;;7.75;5.75;;;;;;;16.51;51.66;101294.13;5024508;28;20037;-74
2023/06/14 05:08:12;;;;;;;6.72;6.03;;;;;;;16.49;51.19;101296.03;5025404;28;20026;-72
2023/06/14 05:10:38;;;;;;;8.30;6.00;;;;;;;16.54;51.23;101293.88;5025131;28;20044;-73
2023/06/14 05:13:04;;;;;;;7.10;5.72;;;;;;;16.58;51.59;101294.53;5024281;28;20127;-72
2023/06/14 05:15:30;;;;;;;7.53;5.53;;;;;;;16.67;51.10;101299.28;5022359;28;20036;-75
2023/06/14 05:17:55;;;;;;;6.40;5.72;;;;;;;16.85;51.61;101299.88;5032826;28;20384;-70
2023/06/14 05:20:26;;;;;;;6.40;5.80;;;;;;;16.92;51.09;101298.47;5020988;28;20515;-75
2023/06/14 05:22:53;;;;;;;6.65;5.18;;;;;;;16.97;50.95;101303.50;5021001;28;20083;-73
2023/06/14 05:25:20;;;;;;;8.38;5.93;;;;;;;17.09;51.04;101305.34;5023320;28;20099;-72
2023/06/14 05:27:46;;;;;;;7.97;5.38;;;;;;;17.12;50.87;101305.13;5023274;28;20118;-71
2023/06/14 05:30:12;;;;;;;6.63;5.85;;;;;;;17.20;50.88;101302.75;5022415;28;20535;-74
2023/06/14 05:32:37;;;;;;;8.88;5.78;;;;;;;17.30;50.89;101297.56;5024072;28;20227;-71
2023/06/14 05:35:03;;;;;;;8.02;5.00;;;;;;;17.39;50.43;101296.94;5020553;28;20055;-74
2023/06/14 05:37:30;;;;;;;8.55;6.13;;;;;;;17.51;50.28;101303.22;5023380;28;20053;-73
2023/06/14 05:39:56;;;;;;;8.50;5.60;;;;;;;17.56;49.81;101309.16;5025424;28;20033;-72
2023/06/14 05:42:21;;;;;;;8.20;6.05;;;;;;;17.61;50.43;101317.75;5005655;28;20322;-73
2023/06/14 05:44:46;;;;;;;8.35;5.85;;;;;;;17.75;50.22;101308.69;5021775;28;20029;-75
2023/06/14 05:47:12;;;;;;;7.72;5.75;;;;;;;17.95;50.53;101321.53;5021691;28;20447;-71
2023/06/14 05:49:37;;;;;;;9.57;5.82;;;;;;;18.07;49.58;101320.63;5021897;28;20176;-73
2023/06/14 05:52:03;;;;;;;7.60;5.68;;;;;;;18.19;49.27;101326.94;5015478;28;20324;-73
2023/06/14 05:54:28;;;;;;;8.40;5.72;;;;;;;18.30;49.25;101326.97;5020503;28;20028;-73
2023/06/14 05:56:54;;;;;;;8.98;5.38;;;;;;;18.46;48.65;101331.19;5016707;28;20220;-75
2023/06/14 05:59:19;;;;;;;6.72;5.75;;;;;;;18.65;49.47;101332.38;5012601;28;20376;-75
2023/06/14 06:01:44;;;;;;;12.68;5.82;;;;;;;18.83;49.17;101332.81;5013881;28;20029;-75
2023/06/14 06:04:10;;;;;;;9.20;6.20;;;;;;;18.92;46.98;101328.53;5019748;28;20492;-75
2023/06/14 06:06:35;;;;;;;7.85;5.65;;;;;;;19.02;46.27;101334.06;5021444;28;20487;-73
2023/06/14 06:09:01;;;;;;;8.85;5.93;;;;;;;19.11;45.51;101333.34;5019836;28;20060;-73
2023/06/14 06:11:26;;;;;;;8.65;5.75;;;;;;;19.32;45.32;101337.03;5003484;28;20355;-79
2023/06/14 06:13:51;;;;;;;7.07;5.03;;;;;;;19.48;44.84;101333.09;5020829;28;20029;-80
2023/06/14 06:16:17;;;;;;;11.38;5.45;;;;;;;19.65;45.23;101340.75;5018143;28;20480;-73
2023/06/14 06:18:42;;;;;;;9.95;5.60;;;;;;;19.86;44.50;101338.13;5017235;28;20063;-75
2023/06/14 06:21:07;;;;;;;8.40;4.82;;;;;;;20.06;44.14;101347.28;5017872;28;20025;-77
2023/06/14 06:23:33;;;;;;;7.75;5.25;;;;;;;20.37;44.49;101351.84;5020578;28;20029;-73
2023/06/14 06:25:58;;;;;;;8.80;5.28;;;;;;;20.33;43.36;101352.22;5016813;28;20061;-74
2023/06/14 06:28:24;;;;;;;9.95;5.85;;;;;;;20.47;43.23;101351.91;5019730;28;20021;-76
2023/06/14 06:30:50;;;;;;;10.48;5.50;;;;;;;20.47;42.62;101354.63;5017449;28;20056;-72
2023/06/14 06:33:15;;;;;;;7.82;5.07;;;;;;;20.72;43.11;101355.28;5020546;28;20029;-74
2023/06/14 06:35:41;;;;;;;10.07;5.43;;;;;;;20.87;42.72;101360.25;5015299;28;20589;-74
2023/06/14 06:38:06;;;;;;;10.32;5.47;;;;;;;20.97;42.33;101364.84;5001160;28;20037;-77
2023/06/14 06:40:32;;;;;;;7.60;5.00;;;;;;;21.12;41.71;101366.22;5019607;28;20026;-74
2023/06/14 06:42:57;;;;;;;7.20;5.13;;;;;;;21.18;40.70;101357.56;5003642;28;20496;-74
2023/06/14 06:45:23;;;;;;;8.13;4.82;;;;;;;21.45;41.59;101373.28;5021341;28;20056;-78
2023/06/14 06:47:49;;;;;;;7.22;5.75;;;;;;;21.46;40.99;101372.28;5020636;28;20480;-74
2023/06/14 06:50:14;;;;;;;7.53;4.70;;;;;;;21.85;41.82;101370.56;5011695;28;20450;-75
2023/06/14 06:52:40;;;;;;;8.23;5.15;;;;;;;22.18;40.30;101378.50;5014353;28;20033;-75
2023/06/14 06:55:05;;;;;;;8.30;5.28;;;;;;;22.12;39.45;101377.19;5022319;28;20084;-73
2023/06/14 06:57:31;;;;;;;6.75;4.70;;;;;;;22.13;38.92;101379.78;5015483;28;20026;-72
2023/06/14 06:59:59;;;;;;;7.90;4.68;;;;;;;22.10;39.18;101379.19;5018472;28;20105;-71
2023/06/14 07:02:25;;;;;;;9.48;4.47;;;;;;;22.34;39.05;101385.09;5018929;28;20025;-72
2023/06/14 07:04:50;;;;;;;8.27;4.53;;;;;;;22.56;38.91;101391.25;4999526;28;20030;-77
2023/06/14 07:07:17;;;;;;;9.45;4.70;;;;;;;22.60;37.95;101387.25;4997504;28;20112;-71
2023/06/14 07:09:44;;;;;;;8.20;4.78;;;;;;;22.67;37.88;101385.69;5014640;28;20024;-73
2023/06/14 07:12:10;;;;;;;6.85;4.70;;;;;;;22.97;36.72;101391.97;5012650;28;20330;-76
2023/06/14 07:14:35;;;;;;;7.45;4.50;;;;;;;22.96;36.72;101401.13;5017041;28;20086;-72
2023/06/14 07:17:01;;;;;;;8.10;4.45;;;;;;;23.16;35.95;101401.94;5022931;28;20033;-78
2023/06/14 07:19:26;;;;;;;7.10;4.25;;;;;;;23.25;35.11;101395.63;5022683;28;20060;-73
2023/06/14 07:21:52;;;;;;;6.32;3.97;;;;;;;23.49;35.33;101392.41;5016312;28;20091;-70
2023/06/14 07:24:17;;;;;;;7.57;4.32;;;;;;;23.58;34.72;101388.81;5015098;28;20025;-75
2023/06/14 07:26:42;;;;;;;6.18;4.55;;;;;;;23.75;34.63;101398.91;5023158;28;20053;-74
2023/06/14 07:29:08;;;;;;;6.40;4.15;;;;;;;23.98;34.38;101393.06;5019223;28;20033;-73
2023/06/14 07:31:33;;;;;;;7.88;4.65;;;;;;;24.06;34.24;101395.88;5025921;28;20025;-74
2023/06/14 07:33:58;;;;;;;6.40;3.90;;;;;;;24.50;33.46;101406.94;5024366;28;20052;-77
2023/06/14 07:36:24;;;;;;;6.50;4.32;;;;;;;24.97;32.93;101401.22;5018120;28;20034;-71
2023/06/14 07:38:49;;;;;;;9.15;4.05;;;;;;;25.24;31.97;101414.72;5022400;28;20481;-75
2023/06/14 07:41:15;;;;;;;7.70;3.95;;;;;;;25.52;31.85;101409.09;5024751;28;20029;-77
2023/06/14 07:43:41;;;;;;;8.80;4.88;;;;;;;25.75;31.25;101421.16;5025926;28;20244;-77
2023/06/14 07:46:07;;;;;;;8.50;4.70;;;;;;;26.19;30.33;101415.56;5025603;28;20187;-79
2023/06/14 07:48:32;;;;;;;8.52;4.40;;;;;;;26.37;29.96;101409.97;5024795;28;20057;-74
2023/06/14 07:50:57;;;;;;;5.43;4.28;;;;;;;26.72;30.65;101416.19;5025096;28;20022;-78
2023/06/14 07:53:23;;;;;;;9.73;4.05;;;;;;;27.13;29.64;101430.75;5022793;28;20041;-72
2023/06/14 07:55:48;;;;;;;9.15;3.90;;;;;;;27.73;29.00;101416.63;5026582;28;20356;-73
2023/06/14 07:58:13;;;;;;;5.45;4.00;;;;;;;28.12;27.55;101420.38;5023423;28;20305;-75
2023/06/14 08:00:39;;;;;;;7.35;3.97;;;;;;;28.11;27.86;101432.38;5028665;28;20052;-71
2023/06/14 08:03:07;;;;;;;6.05;3.78;;;;;;;28.40;27.44;101426.25;5026827;28;20036;-71
2023/06/14 08:05:33;;;;;;;5.45;3.70;;;;;;;28.68;27.71;101426.56;5019780;28;20083;-78
2023/06/14 08:07:58;;;;;;;7.53;3.78;;;;;;;28.98;26.79;101433.03;5021930;28;20492;-74
2023/06/14 08:10:23;;;;;;;5.78;3.80;;;;;;;29.30;26.78;101440.09;5021928;28;20246;-74
2023/06/14 08:12:49;;;;;;;4.57;3.50;;;;;;;29.25;26.37;101437.91;5024215;28;20037;-79
2023/06/14 08:15:15;;;;;;;8.30;3.53;;;;;;;29.06;25.39;101435.72;5023964;28;20025;-78
2023/06/14 08:17:43;;;;;;;7.03;3.70;;;;;;;29.04;26.05;101443.25;5026399;28;20594;-79
2023/06/14 08:20:09;;;;;;;5.30;3.40;;;;;;;29.66;25.29;101423.81;5031064;28;20018;-78
2023/06/14 08:22:36;;;;;;;6.63;3.60;;;;;;;30.00;24.63;101431.44;5025340;28;20036;-72
2023/06/14 08:25:02;;;;;;;5.35;3.35;;;;;;;30.40;24.64;101426.47;5004387;28;20025;-73
2023/06/14 08:27:27;;;;;;;4.65;3.38;;;;;;;30.78;23.44;101430.91;5022193;28;20059;-78
2023/06/14 08:29:53;;;;;;;3.90;3.20;;;;;;;31.04;23.13;101433.88;4998032;28;20071;-74
2023/06/14 08:32:18;;;;;;;6.82;3.22;;;;;;;31.38;22.95;101430.38;5022390;28;20128;-76
2023/06/14 08:34:44;;;;;;;4.47;3.00;;;;;;;31.38;21.89;101438.63;5033983;28;20028;-78
2023/06/14 08:37:09;;;;;;;3.85;3.28;;;;;;;31.04;22.05;101438.53;5025449;28;20456;-73
2023/06/14 08:39:35;;;;;;;4.03;3.00;;;;;;;30.72;22.44;101427.88;5019323;28;20335;-71
2023/06/14 08:42:03;;;;;;;6.95;2.97;;;;;;;30.57;23.13;101429.81;5023856;28;20037;-76
2023/06/14 08:44:29;;;;;;;6.25;3.10;;;;;;;31.34;22.94;101429.06;5025919;28;20021;-74
2023/06/14 08:46:57;;;;;;;6.97;2.92;;;;;;;31.53;21.99;101427.50;5025543;28;20619;-78
2023/06/14 08:49:24;;;;;;;5.10;2.70;;;;;;;32.27;22.07;101431.47;5023822;28;20037;-78
2023/06/14 08:51:57;;;;;;;5.75;2.88;;;;;;;33.05;21.48;101429.97;5011766;28;20493;-79
2023/06/14 08:54:24;;;;;;;6.20;2.95;;;;;;;33.66;20.44;101429.72;5022548;28;20041;-77
2023/06/14 08:56:51;;;;;;;4.85;2.83;;;;;;;33.69;19.97;101426.53;5020915;28;20167;-74
2023/06/14 08:59:18;;;;;;;4.68;2.55;;;;;;;33.42;20.14;101424.84;5023435;28;20084;-74
2023/06/14 09:01:45;;;;;;;4.50;2.53;;;;;;;33.10;20.11;101430.19;5023733;28;20127;-76
2023/06/14 09:04:10;;;;;;;5.20;2.40;;;;;;;32.94;19.65;101428.72;5024255;28;20024;-73
2023/06/14 09:06:36;;;;;;;4.60;2.63;;;;;;;33.61;19.96;101429.53;5020328;28;20422;-76
2023/06/14 09:09:04;;;;;;;8.10;3.00;;;;;;;34.05;19.06;101427.91;5024149;28;20025;-73
2023/06/14 09:11:30;;;;;;;3.42;2.13;;;;;;;34.16;19.78;101432.75;5027185;28;20215;-72
2023/06/14 09:13:55;;;;;;;2.60;2.40;;;;;;;34.49;19.81;101419.84;5024512;28;20021;-77
2023/06/14 09:16:21;;;;;;;5.22;2.05;;;;;;;34.87;17.38;101428.94;5018962;28;20100;-75
2023/06/14 09:18:50;;;;;;;4.85;2.13;;;;;;;35.06;18.25;101429.88;5024832;28;20036;-76
2023/06/14 09:21:16;;;;;;;4.35;2.00;;;;;;;34.83;17.37;101429.63;5025597;28;20033;-77
2023/06/14 09:23:47;;;;;;;3.83;2.38;;;;;;;34.90;17.59;101430.38;5022701;28;20040;-78
2023/06/14 09:26:17;;;;;;;2.17;1.70;;;;;;;35.24;16.58;101447.59;5020203;28;20056;-78
2023/06/14 09:28:44;;;;;;;2.88;1.90;;;;;;;34.90;16.12;101439.53;5019025;28;20044;-78
2023/06/14 09:31:15;;;;;;;3.08;1.70;;;;;;;34.85;16.10;101446.81;5021358;28;20052;-76
2023/06/14 09:33:48;;;;;;;3.30;1.65;;;;;;;34.64;16.07;101448.03;5025669;28;20052;-74
2023/06/14 09:36:21;;;;;;;3.35;1.85;;;;;;;34.80;16.67;101438.34;5024013;28;20025;-77
2023/06/14 09:38:54;;;;;;;1.58;1.48;;;;;;;34.96;15.67;101445.25;5019148;28;20137;-77
2023/06/14 09:41:19;;;;;;;3.88;1.80;;;;;;;35.72;15.92;101446.94;5020503;28;20033;-74
2023/06/14 09:43:46;;;;;;;2.88;1.38;;;;;;;36.27;15.37;101447.75;5023839;28;20032;-78
2023/06/14 09:46:12;;;;;;;3.58;1.40;;;;;;;35.95;15.42;101452.59;5023202;28;20104;-74
2023/06/14 09:48:42;;;;;;;2.25;1.15;;;;;;;35.83;14.77;101446.16;5018028;28;20226;-78
2023/06/14 09:51:10;;;;;;;2.92;1.40;;;;;;;35.88;14.71;101446.31;5020519;28;20029;-77
2023/06/14 09:53:36;;;;;;;2.53;1.50;;;;;;;36.24;14.31;101458.47;5020257;28;20111;-74
2023/06/14 09:56:05;;;;;;;2.17;1.50;;;;;;;36.57;14.55;101445.00;5022840;28;20116;-75
2023/06/14 09:58:33;;;;;;;2.67;1.58;;;;;;;36.59;14.44;101453.13;5020279;28;20052;-81
2023/06/14 10:00:59;;;;;;;3.15;1.60;;;;;;;36.36;14.08;101445.50;5021376;28;20320;-75
2023/06/14 10:03:29;;;;;;;1.98;1.27;;;;;;;36.08;14.52;101455.28;5016317;28;20098;-78
2023/06/14 10:06:01;;;;;;;3.75;1.52;;;;;;;36.45;14.27;101446.88;5016924;28;20503;-78
2023/06/14 10:08:30;;;;;;;2.38;1.42;;;;;;;36.96;14.18;101437.19;5019880;28;20021;-78
2023/06/14 10:10:56;;;;;;;1.90;1.73;;;;;;;37.47;13.75;101444.00;5019099;28;20036;-76
2023/06/14 10:13:22;;;;;;;2.70;1.48;;;;;;;37.53;14.28;101440.25;5022062;28;20072;-73
2023/06/14 10:15:50;;;;;;;1.80;1.35;;;;;;;37.66;14.13;101441.91;5023612;28;20057;-77
2023/06/14 10:18:30;;;;;;;3.40;1.48;;;;;;;37.75;14.10;101440.47;5022487;28;20099;-81
2023/06/14 10:21:07;;;;;;;2.85;1.50;;;;;;;37.42;14.07;101431.94;5019557;28;20269;-74
2023/06/14 10:23:40;;;;;;;3.13;1.60;;;;;;;37.04;13.92;101438.75;5027647;28;20036;-73
2023/06/14 10:26:05;;;;;;;2.28;1.48;;;;;;;37.45;13.04;101434.22;5017930;28;20046;-72
2023/06/14 10:28:32;;;;;;;4.25;1.90;;;;;;;37.32;13.27;101429.72;5021537;28;20089;-73
2023/06/14 10:31:10;;;;;;;2.08;1.52;;;;;;;38.01;13.79;101435.50;5020738;28;20138;-75
2023/06/14 10:33:56;;;;;;;1.75;1.65;;;;;;;39.39;13.12;101438.88;5022648;28;20040;-76
2023/06/14 10:36:22;;;;;;;2.55;1.98;;;;;;;38.57;13.58;101433.81;5011039;28;20040;-71
2023/06/14 10:39:29;;;;;;;3.08;1.65;;;;;;;38.83;13.52;101440.69;5015480;28;20025;-77
2023/06/14 10:41:56;;;;;;;2.10;1.70;;;;;;;38.14;13.45;101440.75;4970536;28;20103;-78
2023/06/14 10:44:22;;;;;;;7.85;1.83;;;;;;;37.51;14.31;101434.09;5003032;28;20033;-76
2023/06/14 10:46:49;;;;;;;1.92;1.70;;;;;;;36.98;14.39;101432.25;5009810;28;20022;-75
2023/06/14 10:49:18;;;;;;;1.88;1.77;;;;;;;37.29;14.79;101441.31;5020301;28;20036;-71
2023/06/14 10:51:57;;;;;;;3.05;1.88;;;;;;;38.02;14.39;101432.44;5021242;28;20037;-76
2023/06/14 10:54:23;;;;;;;2.78;1.58;;;;;;;37.61;14.14;101439.88;5001600;28;20282;-74
2023/06/14 10:56:50;;;;;;;2.10;1.67;;;;;;;37.88;13.95;101440.22;5013999;28;20017;-76
2023/06/14 10:59:17;;;;;;;1.95;1.58;;;;;;;38.16;13.94;101451.63;5011071;28;20025;-75
2023/06/14 11:02:07;;;;;;;2.55;1.50;;;;;;;38.30;13.80;101451.09;5019254;28;20025;-79
2023/06/14 11:05:06;;;;;;;1.65;1.50;;;;;;;38.42;14.18;101448.28;5001751;28;20303;-79
2023/06/14 11:07:53;;;;;;;3.40;2.08;;;;;;;39.02;14.05;101444.94;5000071;28;20049;-76
2023/06/14 11:10:42;;;;;;;4.25;1.60;;;;;;;39.40;13.64;101434.13;5019575;28;20251;-78
2023/06/14 11:13:08;;;;;;;3.05;1.60;;;;;;;38.76;13.91;101448.34;5018938;28;20029;-77
2023/06/14 11:15:38;;;;;;;3.65;1.70;;;;;;;38.30;13.84;101447.47;5017428;28;20315;-78
2023/06/14 11:18:09;;;;;;;2.55;1.70;;;;;;;38.40;14.06;101442.13;5019312;28;20022;-77
2023/06/14 11:20:37;;;;;;;2.75;1.98;;;;;;;38.62;13.74;101434.75;5014463;28;20028;-73
2023/06/14 11:23:04;;;;;;;2.00;1.40;;;;;;;38.85;13.35;101439.38;5014686;28;20024;-73
2023/06/14 11:25:30;;;;;;;3.47;2.00;;;;;;;38.91;13.27;101434.72;5001018;28;20037;-75